Terminal Aerodrome Forecast
Issued by NWS

Home | Current Version | Previous Version | Text Only | Print | Product List | Glossary Off
Versions: 1 2 3 4 5 6 7 8 9 10 11 12 13 14 15 16 17 18 19 20 21 22 23 24 25 26 27 28 29 30

000
FTUS45 KGGW 042300
TAFOLF
TAF
KOLF 042320Z 0500/0524 20008KT 6SM -SHRA VCTS OVC090CB
      TEMPO 0500/0502 TS
     FM050300 VRB03KT 6SM -SHRA BKN080
     FM050600 VRB04KT P6SM VCTS SCT010 BKN070CB
     FM051200 VRB03KT P6SM FEW006 FEW200
     FM052100 26007KT P6SM FEW100=

USA.gov is the U.S. government's official web portal to all federal, state and local government web resources and services.